createdAt,value
2022-07-30T00:00:13.036Z,92.00
2022-07-30T00:02:52.033Z,92.60
2022-07-30T00:05:18.794Z,92.00
2022-07-30T00:07:45.572Z,91.70
2022-07-30T00:10:12.388Z,91.80
2022-07-30T00:12:39.632Z,91.60
2022-07-30T00:15:07.048Z,91.40
2022-07-30T00:17:33.820Z,91.10
2022-07-30T00:20:00.579Z,91.00
2022-07-30T00:22:31.212Z,90.70
2022-07-30T00:24:58.069Z,90.70
2022-07-30T00:27:25.301Z,90.70
2022-07-30T00:29:52.091Z,90.90
2022-07-30T00:32:18.918Z,91.20
2022-07-30T00:34:45.664Z,91.10
2022-07-30T00:37:12.741Z,91.30
2022-07-30T00:39:39.482Z,91.10
2022-07-30T00:42:06.306Z,91.20
2022-07-30T00:44:33.415Z,91.20
2022-07-30T00:47:00.587Z,91.40
2022-07-30T00:49:27.677Z,91.90
2022-07-30T00:51:54.697Z,91.80
2022-07-30T00:54:21.873Z,91.40
2022-07-30T00:56:49.008Z,91.20
2022-07-30T00:59:16.236Z,91.50
2022-07-30T01:01:43.258Z,91.90
2022-07-30T01:04:11.742Z,92.00
2022-07-30T01:06:40.247Z,92.10
2022-07-30T01:09:08.288Z,92.00
2022-07-30T01:11:39.719Z,92.10
2022-07-30T01:14:07.832Z,92.40
2022-07-30T01:16:36.394Z,92.20
2022-07-30T01:19:30.378Z,91.90
2022-07-30T01:22:12.580Z,92.10
2022-07-30T01:24:44.622Z,91.80
2022-07-30T01:27:14.836Z,91.30
2022-07-30T01:29:46.642Z,91.60
2022-07-30T01:32:14.477Z,92.00
2022-07-30T01:34:43.828Z,91.70
2022-07-30T01:37:11.726Z,92.10
2022-07-30T01:39:39.826Z,92.40
2022-07-30T01:42:09.144Z,92.50
2022-07-30T01:44:37.638Z,92.10
2022-07-30T01:47:06.296Z,92.30
2022-07-30T01:49:36.388Z,92.10
2022-07-30T01:52:05.003Z,92.30
2022-07-30T01:54:33.615Z,92.60
2022-07-30T01:57:02.735Z,92.30
2022-07-30T01:59:34.576Z,92.20
2022-07-30T02:02:02.015Z,91.40
2022-07-30T02:04:29.660Z,91.70
2022-07-30T02:07:34.501Z,91.60
2022-07-30T02:10:26.602Z,91.50
2022-07-30T02:12:56.022Z,92.00
2022-07-30T02:15:33.010Z,91.90
2022-07-30T02:18:25.940Z,92.10
2022-07-30T02:21:07.220Z,92.20
2022-07-30T02:23:40.823Z,91.90
2022-07-30T02:26:09.990Z,92.20
2022-07-30T02:28:39.491Z,92.30
2022-07-30T02:31:17.483Z,92.60
2022-07-30T02:33:48.828Z,92.20
2022-07-30T02:36:18.707Z,92.30
2022-07-30T02:38:47.413Z,92.80
2022-07-30T02:41:15.332Z,92.40
2022-07-30T02:43:43.109Z,92.70
2022-07-30T02:46:12.864Z,92.60
2022-07-30T02:48:41.024Z,92.60
2022-07-30T02:51:10.575Z,92.70
2022-07-30T02:53:40.094Z,92.80
2022-07-30T02:56:07.927Z,92.60
2022-07-30T02:58:37.833Z,92.30
2022-07-30T03:01:05.682Z,92.00
2022-07-30T03:03:32.891Z,91.90
2022-07-30T03:06:00.409Z,92.40
2022-07-30T03:08:29.002Z,92.50
2022-07-30T03:10:57.096Z,92.70
2022-07-30T03:13:24.856Z,92.70
2022-07-30T03:15:52.904Z,92.70
2022-07-30T03:18:21.350Z,92.80
2022-07-30T03:20:51.828Z,92.70
2022-07-30T03:23:19.923Z,92.80
2022-07-30T03:25:58.981Z,92.70
2022-07-30T03:28:26.445Z,92.90
2022-07-30T03:30:54.046Z,92.40
2022-07-30T03:33:23.451Z,92.30
2022-07-30T03:36:05.823Z,91.20
2022-07-30T03:38:33.832Z,91.60
2022-07-30T03:41:01.517Z,91.10
2022-07-30T03:43:33.083Z,91.60
2022-07-30T03:46:02.984Z,91.60
2022-07-30T03:48:31.245Z,91.50
2022-07-30T03:51:01.261Z,91.50
2022-07-30T03:53:29.414Z,91.30
2022-07-30T03:55:56.347Z,91.30
2022-07-30T03:58:23.159Z,91.60
2022-07-30T04:00:51.003Z,91.50
2022-07-30T04:03:28.969Z,91.80
2022-07-30T04:05:55.925Z,92.10
2022-07-30T04:08:23.001Z,92.80
2022-07-30T04:10:51.162Z,92.90
2022-07-30T04:13:18.278Z,92.40
2022-07-30T04:16:05.740Z,92.60
2022-07-30T04:18:53.332Z,92.70
2022-07-30T04:21:23.058Z,92.60
2022-07-30T04:24:03.871Z,92.70
2022-07-30T04:26:34.735Z,92.90
2022-07-30T04:29:04.466Z,92.30
2022-07-30T04:31:37.433Z,92.00
2022-07-30T04:34:07.900Z,92.40
2022-07-30T04:36:35.776Z,92.80
2022-07-30T04:39:03.364Z,92.80
2022-07-30T04:41:45.370Z,92.50
2022-07-30T04:44:20.538Z,92.60
2022-07-30T04:46:48.222Z,92.80
2022-07-30T04:49:17.497Z,92.20
2022-07-30T04:51:45.158Z,92.10
2022-07-30T04:54:15.308Z,92.30
2022-07-30T04:56:53.523Z,92.40
2022-07-30T04:59:23.231Z,92.20
2022-07-30T05:01:51.083Z,92.80
2022-07-30T05:04:18.951Z,92.60
2022-07-30T05:06:46.340Z,92.70
2022-07-30T05:09:15.119Z,93.10
2022-07-30T05:11:41.910Z,93.20
2022-07-30T05:14:08.707Z,93.20
2022-07-30T05:16:35.995Z,93.00
2022-07-30T05:19:07.632Z,93.20
2022-07-30T05:21:35.326Z,93.30
2022-07-30T05:24:02.116Z,93.30
2022-07-30T05:26:29.444Z,93.40
2022-07-30T05:28:56.651Z,93.50
2022-07-30T05:31:25.121Z,93.30
2022-07-30T05:33:52.665Z,93.20
2022-07-30T05:36:22.484Z,93.00
2022-07-30T05:38:49.387Z,92.60
2022-07-30T05:41:30.821Z,92.30
2022-07-30T05:43:59.343Z,92.40
2022-07-30T05:46:26.280Z,91.80
2022-07-30T05:48:53.557Z,92.40
2022-07-30T05:51:22.035Z,92.80
2022-07-30T05:53:49.542Z,92.80
2022-07-30T05:56:16.801Z,92.60
2022-07-30T05:58:43.761Z,92.50
2022-07-30T06:01:10.675Z,92.80
2022-07-30T06:03:39.024Z,92.90
2022-07-30T06:06:07.084Z,92.30
2022-07-30T06:08:34.182Z,92.20
2022-07-30T06:11:00.994Z,92.70
2022-07-30T06:13:27.839Z,92.40
2022-07-30T06:15:54.718Z,92.20
2022-07-30T06:18:23.280Z,92.20
2022-07-30T06:20:52.126Z,91.80
2022-07-30T06:23:19.671Z,91.90
2022-07-30T06:25:48.244Z,91.90
2022-07-30T06:28:36.443Z,90.80
2022-07-30T06:31:03.306Z,91.20
2022-07-30T06:33:30.334Z,91.30
2022-07-30T06:35:57.150Z,91.00
2022-07-30T06:38:24.063Z,91.30
2022-07-30T06:40:50.854Z,91.30
2022-07-30T06:43:19.117Z,90.10
2022-07-30T06:45:46.000Z,90.40
2022-07-30T06:48:12.943Z,90.30
2022-07-30T06:50:41.380Z,90.30
2022-07-30T06:53:08.392Z,90.40
2022-07-30T06:55:35.334Z,90.30
2022-07-30T06:58:02.277Z,90.60
2022-07-30T07:00:30.380Z,90.10
2022-07-30T07:02:57.113Z,89.00
2022-07-30T07:05:23.927Z,89.70
2022-07-30T07:07:58.783Z,89.70
2022-07-30T07:10:27.313Z,89.90
2022-07-30T07:12:54.852Z,90.20
2022-07-30T07:15:36.776Z,90.30
2022-07-30T07:18:05.112Z,90.10
2022-07-30T07:20:32.518Z,89.70
2022-07-30T07:22:59.493Z,89.40
2022-07-30T07:25:26.527Z,89.20
2022-07-30T07:28:11.545Z,89.40
2022-07-30T07:30:41.388Z,89.30
2022-07-30T07:33:08.599Z,89.40
2022-07-30T07:35:41.207Z,88.70
2022-07-30T07:38:17.996Z,88.90
2022-07-30T07:40:44.993Z,88.80
2022-07-30T07:43:11.815Z,88.10
2022-07-30T07:45:39.223Z,87.30
2022-07-30T07:48:06.263Z,87.00
2022-07-30T07:50:33.029Z,87.50
2022-07-30T07:53:00.249Z,86.60
2022-07-30T07:55:27.432Z,86.20
2022-07-30T07:57:54.224Z,84.80
2022-07-30T08:00:21.168Z,83.10
2022-07-30T08:02:49.028Z,83.10
2022-07-30T08:05:16.568Z,83.60
2022-07-30T08:07:44.797Z,84.10
2022-07-30T08:10:13.862Z,81.40
2022-07-30T08:12:40.968Z,80.80
2022-07-30T08:15:09.493Z,80.20
2022-07-30T08:17:44.258Z,78.40
2022-07-30T08:20:12.664Z,81.20
2022-07-30T08:22:39.756Z,79.60
2022-07-30T08:25:07.033Z,79.90
2022-07-30T08:27:33.987Z,79.10
2022-07-30T08:30:06.468Z,77.40
2022-07-30T08:32:33.523Z,77.90
2022-07-30T08:35:00.349Z,77.20
2022-07-30T08:37:27.258Z,75.90
2022-07-30T08:39:54.110Z,76.70
2022-07-30T08:42:22.654Z,74.50
2022-07-30T08:44:52.539Z,74.30
2022-07-30T08:47:23.579Z,75.10
2022-07-30T08:49:50.774Z,74.30
2022-07-30T08:52:17.856Z,75.80
2022-07-30T08:54:44.940Z,76.90
2022-07-30T08:57:11.904Z,77.20
2022-07-30T09:00:00.198Z,76.10
2022-07-30T09:02:27.856Z,76.70
2022-07-30T09:04:56.469Z,75.90
2022-07-30T09:07:23.604Z,77.00
2022-07-30T09:09:50.443Z,76.40
2022-07-30T09:12:37.589Z,75.40
2022-07-30T09:15:07.685Z,75.10
2022-07-30T09:17:54.672Z,74.00
2022-07-30T09:20:24.438Z,72.10
2022-07-30T09:22:53.907Z,72.10
2022-07-30T09:25:41.182Z,70.10
2022-07-30T09:28:15.864Z,71.00
2022-07-30T09:30:54.674Z,68.40
2022-07-30T09:33:33.104Z,70.60
2022-07-30T09:36:01.277Z,68.90
2022-07-30T09:38:28.806Z,67.90
2022-07-30T09:40:58.008Z,69.10
2022-07-30T09:43:27.890Z,67.50
2022-07-30T09:45:58.418Z,67.60
2022-07-30T09:48:27.686Z,67.00
2022-07-30T09:50:57.352Z,65.40
2022-07-30T09:53:24.645Z,65.40
2022-07-30T09:55:51.527Z,66.00
2022-07-30T09:58:27.259Z,66.30
2022-07-30T10:00:59.540Z,66.40
2022-07-30T10:03:34.181Z,66.00
2022-07-30T10:06:08.860Z,66.70
2022-07-30T10:08:48.140Z,67.90
2022-07-30T10:11:17.396Z,67.50
2022-07-30T10:13:54.696Z,69.20
2022-07-30T10:16:21.907Z,66.50
2022-07-30T10:18:51.882Z,66.70
2022-07-30T10:21:19.766Z,67.60
2022-07-30T10:23:50.535Z,65.80
2022-07-30T10:26:18.258Z,66.70
2022-07-30T10:28:46.170Z,67.30
2022-07-30T10:31:47.930Z,66.80
2022-07-30T10:34:02.635Z,67.80
2022-07-30T10:36:30.558Z,69.10
2022-07-30T10:38:57.531Z,69.40
2022-07-30T10:41:47.510Z,67.10
2022-07-30T10:44:41.252Z,64.30
2022-07-30T10:47:11.330Z,65.60
2022-07-30T10:49:40.985Z,63.20
2022-07-30T10:52:09.050Z,61.20
2022-07-30T10:54:45.526Z,56.40
2022-07-30T10:57:31.656Z,58.80
2022-07-30T10:59:59.878Z,59.10
2022-07-30T11:02:28.481Z,57.40
2022-07-30T11:05:18.501Z,56.70
2022-07-30T11:07:47.411Z,53.90
2022-07-30T11:10:40.567Z,53.80
2022-07-30T11:13:08.779Z,53.50
2022-07-30T11:16:00.367Z,54.00
2022-07-30T11:18:28.802Z,55.70
2022-07-30T11:21:22.664Z,54.80
2022-07-30T11:23:54.818Z,53.40
2022-07-30T11:26:41.115Z,52.60
2022-07-30T11:29:33.041Z,52.20
2022-07-30T11:32:29.557Z,52.70
2022-07-30T11:35:23.097Z,53.60
2022-07-30T11:38:01.966Z,52.70
2022-07-30T11:40:37.731Z,49.30
2022-07-30T11:43:34.583Z,49.60
2022-07-30T11:46:07.335Z,49.20
2022-07-30T11:48:42.044Z,48.80
2022-07-30T11:51:09.980Z,49.70
2022-07-30T11:53:37.974Z,49.60
2022-07-30T11:56:05.011Z,49.20
2022-07-30T11:58:37.289Z,47.60
2022-07-30T12:01:14.013Z,49.60
2022-07-30T12:03:45.093Z,49.70
2022-07-30T12:06:21.286Z,51.20
2022-07-30T12:08:57.998Z,49.90
2022-07-30T12:11:31.424Z,49.10
2022-07-30T12:14:01.906Z,48.90
2022-07-30T12:16:30.825Z,48.60
2022-07-30T12:19:06.835Z,46.80
2022-07-30T12:21:36.814Z,44.70
2022-07-30T12:24:09.822Z,44.60
2022-07-30T12:26:36.810Z,44.00
2022-07-30T12:29:07.304Z,45.90
2022-07-30T12:31:34.374Z,45.10
2022-07-30T12:34:20.867Z,43.70
2022-07-30T12:36:47.711Z,40.40
2022-07-30T12:39:25.327Z,42.00
2022-07-30T12:41:56.041Z,41.00
2022-07-30T12:44:44.517Z,39.00
2022-07-30T12:47:25.135Z,38.80
2022-07-30T12:49:53.757Z,38.50
2022-07-30T12:52:27.590Z,39.80
2022-07-30T12:55:11.148Z,36.40
2022-07-30T12:58:08.328Z,36.20
2022-07-30T13:00:44.581Z,38.50
2022-07-30T13:03:26.136Z,41.80
2022-07-30T13:05:55.944Z,44.20
2022-07-30T13:08:56.391Z,40.50
2022-07-30T13:11:27.549Z,36.20
2022-07-30T13:13:54.517Z,34.40
2022-07-30T13:16:21.523Z,36.00
2022-07-30T13:18:48.426Z,37.70
2022-07-30T13:21:15.270Z,38.60
2022-07-30T13:23:42.204Z,38.60
2022-07-30T13:26:10.766Z,39.10
2022-07-30T13:28:37.823Z,41.30
2022-07-30T13:31:04.777Z,39.00
2022-07-30T13:33:31.564Z,38.70
2022-07-30T13:35:59.120Z,38.40
2022-07-30T13:38:25.909Z,40.60
2022-07-30T13:40:53.186Z,42.30
2022-07-30T13:43:21.189Z,44.30
2022-07-30T13:45:48.763Z,44.90
2022-07-30T13:48:15.868Z,45.00
2022-07-30T13:50:43.417Z,41.90
2022-07-30T13:53:10.703Z,38.80
2022-07-30T13:55:39.003Z,37.60
2022-07-30T13:58:06.866Z,38.20
2022-07-30T14:00:36.618Z,36.00
2022-07-30T14:03:06.170Z,36.60
2022-07-30T14:05:36.005Z,38.70
2022-07-30T14:08:10.190Z,41.20
2022-07-30T14:10:37.462Z,43.30
2022-07-30T14:13:05.702Z,43.90
2022-07-30T14:15:33.238Z,44.80
2022-07-30T14:18:01.174Z,46.40
2022-07-30T14:20:29.088Z,44.00
2022-07-30T14:22:56.711Z,40.70
2022-07-30T14:25:23.621Z,39.50
2022-07-30T14:27:50.645Z,39.50
2022-07-30T14:30:17.554Z,41.80
2022-07-30T14:32:45.265Z,43.50
2022-07-30T14:35:12.102Z,42.30
2022-07-30T14:37:39.391Z,39.90
2022-07-30T14:40:09.928Z,38.80
2022-07-30T14:42:36.942Z,39.90
2022-07-30T14:45:04.923Z,42.40
2022-07-30T14:47:32.413Z,42.70
2022-07-30T14:49:59.561Z,42.80
2022-07-30T14:52:26.904Z,41.70
2022-07-30T14:54:54.009Z,39.80
2022-07-30T14:57:20.737Z,41.30
2022-07-30T14:59:47.594Z,40.00
2022-07-30T15:02:14.457Z,40.80
2022-07-30T15:04:41.291Z,41.30
2022-07-30T15:07:08.091Z,42.60
2022-07-30T15:09:35.922Z,42.30
2022-07-30T15:12:09.037Z,43.10
2022-07-30T15:14:41.020Z,43.60
2022-07-30T15:17:08.381Z,45.60
2022-07-30T15:19:35.427Z,46.40
2022-07-30T15:22:03.102Z,45.80
2022-07-30T15:24:30.851Z,46.30
2022-07-30T15:26:57.618Z,47.80
2022-07-30T15:29:25.474Z,49.60
2022-07-30T15:31:52.240Z,51.50
2022-07-30T15:34:19.062Z,52.40
2022-07-30T15:36:45.819Z,53.10
2022-07-30T15:39:13.397Z,53.30
2022-07-30T15:41:42.380Z,53.70
2022-07-30T15:44:09.116Z,54.10
2022-07-30T15:46:36.000Z,64.90
2022-07-30T15:49:02.893Z,66.70
2022-07-30T15:51:32.089Z,69.90
2022-07-30T15:53:59.619Z,72.30
2022-07-30T15:56:28.166Z,73.60
2022-07-30T15:58:55.442Z,73.00
2022-07-30T16:01:22.311Z,72.00
2022-07-30T16:03:49.199Z,67.00
2022-07-30T16:06:15.984Z,65.70
2022-07-30T16:08:42.778Z,65.70
2022-07-30T16:11:10.990Z,65.90
2022-07-30T16:13:38.316Z,66.40
2022-07-30T16:16:05.449Z,66.20
2022-07-30T16:18:32.372Z,67.90
2022-07-30T16:21:01.115Z,66.90
2022-07-30T16:23:28.420Z,67.60
2022-07-30T16:26:03.466Z,67.60
2022-07-30T16:28:30.334Z,66.50
2022-07-30T16:30:57.132Z,63.80
2022-07-30T16:33:23.942Z,63.70
2022-07-30T16:35:50.977Z,62.80
2022-07-30T16:38:19.602Z,62.90
2022-07-30T16:40:46.514Z,62.00
2022-07-30T16:43:14.112Z,62.10
2022-07-30T16:45:43.776Z,62.20
2022-07-30T16:48:11.475Z,60.40
2022-07-30T16:50:40.562Z,56.70
2022-07-30T16:53:13.170Z,55.50
2022-07-30T16:55:40.688Z,55.20
2022-07-30T16:58:07.712Z,56.60
2022-07-30T17:00:34.665Z,56.90
2022-07-30T17:03:01.433Z,58.10
2022-07-30T17:05:28.740Z,56.70
2022-07-30T17:07:55.657Z,56.90
2022-07-30T17:10:23.527Z,56.90
2022-07-30T17:12:53.966Z,58.20
2022-07-30T17:15:20.828Z,59.40
2022-07-30T17:17:59.219Z,60.20
2022-07-30T17:20:26.017Z,60.80
2022-07-30T17:22:55.270Z,60.90
2022-07-30T17:25:27.415Z,61.10
2022-07-30T17:27:58.820Z,61.20
2022-07-30T17:30:27.292Z,61.50
2022-07-30T17:32:54.890Z,62.40
2022-07-30T17:35:21.686Z,62.50
2022-07-30T17:37:48.515Z,63.40
2022-07-30T17:40:28.678Z,63.10
2022-07-30T17:43:03.765Z,62.30
2022-07-30T17:45:34.283Z,62.10
2022-07-30T17:48:02.094Z,62.30
2022-07-30T17:50:30.429Z,62.70
2022-07-30T17:52:57.408Z,63.30
2022-07-30T17:55:25.047Z,63.30
2022-07-30T17:57:51.941Z,63.90
2022-07-30T18:00:18.752Z,64.80
2022-07-30T18:02:45.668Z,64.50
2022-07-30T18:05:15.453Z,64.60
2022-07-30T18:07:43.500Z,64.90
2022-07-30T18:10:11.573Z,65.20
2022-07-30T18:12:38.452Z,65.40
2022-07-30T18:15:06.415Z,65.60
2022-07-30T18:17:33.334Z,66.30
2022-07-30T18:20:00.479Z,67.00
2022-07-30T18:22:29.532Z,66.50
2022-07-30T18:25:00.559Z,66.80
2022-07-30T18:27:27.940Z,66.70
2022-07-30T18:29:54.753Z,66.60
2022-07-30T18:32:23.417Z,66.70
2022-07-30T18:34:50.345Z,67.00
2022-07-30T18:37:17.466Z,67.30
2022-07-30T18:39:44.280Z,68.40
2022-07-30T18:42:11.104Z,68.50
2022-07-30T18:44:38.153Z,69.50
2022-07-30T18:47:05.000Z,69.80
2022-07-30T18:49:36.972Z,70.90
2022-07-30T18:52:06.689Z,71.20
2022-07-30T18:54:34.048Z,71.20
2022-07-30T18:57:00.923Z,71.50
2022-07-30T18:59:27.742Z,71.90
2022-07-30T19:01:54.724Z,72.60
2022-07-30T19:04:21.644Z,73.10
2022-07-30T19:06:48.569Z,74.00
2022-07-30T19:09:17.983Z,74.60
2022-07-30T19:11:48.581Z,74.40
2022-07-30T19:14:16.477Z,74.70
2022-07-30T19:16:44.491Z,75.00
2022-07-30T19:19:13.516Z,75.00
2022-07-30T19:21:41.228Z,74.80
2022-07-30T19:24:08.752Z,75.00
2022-07-30T19:26:39.208Z,75.50
2022-07-30T19:29:09.785Z,75.70
2022-07-30T19:31:36.761Z,76.10
2022-07-30T19:34:04.411Z,76.60
2022-07-30T19:36:31.213Z,77.80
2022-07-30T19:38:58.897Z,77.60
2022-07-30T19:41:27.440Z,79.30
2022-07-30T19:43:58.212Z,81.20
2022-07-30T19:46:25.492Z,82.90
2022-07-30T19:48:52.580Z,83.90
2022-07-30T19:51:20.431Z,84.80
2022-07-30T19:53:48.134Z,86.00
2022-07-30T19:56:14.975Z,86.20
2022-07-30T19:58:41.967Z,86.10
2022-07-30T20:01:11.093Z,86.10
2022-07-30T20:03:38.976Z,86.00
2022-07-30T20:06:08.704Z,85.80
2022-07-30T20:08:42.062Z,85.80
2022-07-30T20:13:59.875Z,86.50
2022-07-30T20:16:26.842Z,86.00
2022-07-30T20:18:54.584Z,86.10
2022-07-30T20:21:21.472Z,85.90
2022-07-30T20:24:08.550Z,85.70
2022-07-30T20:26:35.725Z,85.80
2022-07-30T20:29:03.574Z,85.50
2022-07-30T20:31:36.060Z,85.30
2022-07-30T20:34:04.761Z,85.00
2022-07-30T20:36:43.101Z,85.30
2022-07-30T20:39:13.364Z,85.20
2022-07-30T20:41:45.090Z,85.70
2022-07-30T20:44:14.972Z,86.00
2022-07-30T20:46:50.899Z,86.50
2022-07-30T20:49:23.786Z,86.90
2022-07-30T20:52:01.123Z,86.90
2022-07-30T20:54:30.260Z,87.10
2022-07-30T20:56:57.359Z,87.20
2022-07-30T20:59:24.816Z,87.30
2022-07-30T21:01:51.576Z,87.10
2022-07-30T21:04:25.662Z,87.10
2022-07-30T21:06:53.374Z,86.90
2022-07-30T21:09:20.501Z,87.20
2022-07-30T21:11:50.364Z,86.50
2022-07-30T21:14:18.424Z,86.40
2022-07-30T21:16:46.747Z,86.20
2022-07-30T21:19:17.736Z,86.50
2022-07-30T21:21:48.211Z,86.10
2022-07-30T21:24:18.878Z,86.70
2022-07-30T21:26:51.209Z,87.10
2022-07-30T21:29:18.921Z,87.20
2022-07-30T21:32:00.450Z,87.30
2022-07-30T21:34:33.640Z,87.60
2022-07-30T21:37:02.779Z,88.00
2022-07-30T21:39:30.607Z,88.10
2022-07-30T21:41:57.570Z,88.50
2022-07-30T21:44:24.392Z,88.40
2022-07-30T21:46:52.326Z,88.80
2022-07-30T21:49:20.521Z,89.30
2022-07-30T21:51:47.593Z,89.40
2022-07-30T21:54:17.046Z,89.20
2022-07-30T21:56:53.254Z,89.20
2022-07-30T21:59:23.136Z,89.10
2022-07-30T22:01:49.895Z,88.70
2022-07-30T22:04:16.698Z,88.70
2022-07-30T22:06:43.742Z,88.80
2022-07-30T22:09:20.501Z,88.90
2022-07-30T22:12:01.127Z,88.70
2022-07-30T22:14:49.559Z,89.00
2022-07-30T22:17:23.411Z,88.80
2022-07-30T22:19:56.581Z,89.40
2022-07-30T22:22:27.072Z,89.30
2022-07-30T22:24:57.158Z,88.50
2022-07-30T22:27:25.229Z,88.90
2022-07-30T22:29:55.572Z,89.20
2022-07-30T22:32:23.560Z,88.60
2022-07-30T22:34:51.492Z,88.40
2022-07-30T22:37:21.598Z,89.60
2022-07-30T22:39:50.502Z,89.30
2022-07-30T22:42:20.035Z,89.50
2022-07-30T22:44:47.557Z,89.50
2022-07-30T22:47:21.020Z,90.10
2022-07-30T22:49:54.557Z,90.30
2022-07-30T22:52:25.458Z,89.90
2022-07-30T22:54:55.212Z,88.30
2022-07-30T22:57:22.856Z,88.30
2022-07-30T22:59:59.900Z,89.50
2022-07-30T23:02:28.029Z,89.70
2022-07-30T23:04:56.285Z,89.30
2022-07-30T23:07:23.622Z,89.20
2022-07-30T23:10:05.231Z,89.40
2022-07-30T23:12:16.919Z,86.00
2022-07-30T23:12:48.321Z,89.80
2022-07-30T23:15:15.320Z,89.00
2022-07-30T23:17:43.345Z,89.40
2022-07-30T23:20:12.724Z,89.40
2022-07-30T23:22:40.215Z,89.50
2022-07-30T23:25:10.180Z,89.90
2022-07-30T23:27:37.620Z,89.90
2022-07-30T23:30:05.300Z,89.40
2022-07-30T23:32:32.828Z,89.20
2022-07-30T23:34:59.562Z,89.30
2022-07-30T23:37:27.302Z,89.30
2022-07-30T23:39:54.097Z,89.00
2022-07-30T23:42:20.853Z,89.40
2022-07-30T23:44:47.608Z,88.00
2022-07-30T23:47:14.358Z,88.30
2022-07-30T23:49:41.154Z,88.70
2022-07-30T23:52:07.984Z,88.80
2022-07-30T23:54:34.784Z,88.90
2022-07-30T23:57:01.745Z,89.20
2022-07-30T23:59:40.612Z,89.60
